PASIPAJN

Guest
Details From PASI - Sitka Rocky Gutierrez
To PAJN - Juneau Intl
Flight Number -
Tags decoded
Created
Modified
Stats Distance 120 nm / 221 km
Max Altitude 0 ft / 0 m
Waypoints 6
Social Downloads 4
Likes 0
Share VATSIM

Download

Looking for another format? Having issues loading an existing format? Contact us
Advertisement - Login to hide

Notes

Requested: PASI SIT BKA LYRIC EEF PAJN

Route

PASI SIT BKA LYRIC EEF PAJN

ID Type Via Altitude (ft/m) Position (lat/lon) Dist (leg/tot) Name
O PASI APT - 0 / 0 57.04710 / -135.36200 - / 0 nm Sitka Rocky Gutierrez
SIT NDB - 0 / 0 56.85460 / -135.53400 12 / 12 nm SITKA
BKA VOR - 0 / 0 56.85940 / -135.55100 0 / 13 nm BIORKA ISLAND (SITKA)
LYRIC FIX - 0 / 0 57.66630 / -135.68300 48 / 62 nm
EEF NDB - 0 / 0 58.17100 / -135.25800 33 / 95 nm ELEPHANT (SISTERS ISLAND)
O PAJN APT - 0 / 0 58.35500 / -134.57600 24 / 119 nm Juneau Intl

Altitude Profile

Advertisement - Login to hide

PASI

Details ICAO PASI (SIT)
Name Sitka Rocky Gutierrez
Region USA (Alaska)
Timezone America/Juneau (UTC-8.0)
Stats Elevation 26 ft / 8 m (AMSL)
Location 57.047100° -135.362000°
Runways 1
Magnetic Variation 18.122° E

METAR

PASI 100753Z 34004KT 10SM BKN048 03/M02 A3037

Decode

TAF

PASI 100526Z 1006/1106 31008KT P6SM FEW035 SCT050

Decode

Departure Runways

ID Width Length Bearing (true/mag) Surface Threshold Overrun Markings Lighting
11 150 ft / 46 m 6,484 ft / 1,976 m 135.59° / 117.47° ASPHALT 0 ft / 0 m 69 ft / 21 m PREC-APP EDGE THRESHOLD REIL-OMNI
29 150 ft / 46 m 6,484 ft / 1,976 m 315.61° / 297.48° ASPHALT 0 ft / 0 m 72 ft / 22 m PREC-APP EDGE THRESHOLD REIL-OMNI

PAJN

Details ICAO PAJN (JNU)
Name Juneau Intl
Region USA (Alaska)
Timezone America/Juneau (UTC-8.0)
Stats Elevation 20 ft / 6 m (AMSL)
Location 58.355000° -134.576000°
Runways 1
Magnetic Variation 18.471° E

METAR

PAJN 100753Z 00000KT 1/2SM FZFG VV003 M01/M02 A3037

Decode

TAF

PAJN 100700Z 1007/1106 06003KT 3SM BR SCT002 SCT070 TEMPO 1007/1011 00000KT 1/2SM FG BKN002 FM101600 34005KT P6SM FEW070 FM101900 24008KT P6SM SKC

Decode

Destination Runways

ID Width Length Bearing (true/mag) Surface Threshold Overrun Markings Lighting
08 151 ft / 46 m 8,867 ft / 2,703 m 104.87° / 86.39° ASPHALT 220 ft / 67 m 0 ft / 0 m APP CENTERLINE EDGE THRESHOLD MALSF
26 151 ft / 46 m 8,867 ft / 2,703 m 284.90° / 266.43° ASPHALT 217 ft / 66 m 0 ft / 0 m APP CENTERLINE EDGE THRESHOLD MALS

Approach Navaids

Runway Type Ident Frequency Range Bearing (true/mag) Slope Elevation
08 LOC-LOC IJDL 109.90 MHz 18 nm / 33 km 84.92° / 66.45 ° - 21 ft / 6 m (AMSL)
08 DME IJDL 109.90 MHz 18 nm / 33 km - - 175 ft / 53 m (AMSL)

Popular Alternatives